createdAt,value
2017-07-28T00:02:07.407Z,99719.00
2017-07-28T00:04:36.847Z,99716.05
2017-07-28T00:07:05.935Z,99721.41
2017-07-28T00:09:34.956Z,99720.43
2017-07-28T00:12:03.997Z,99714.58
2017-07-28T00:14:33.067Z,99716.53
2017-07-28T00:17:02.216Z,99720.27
2017-07-28T00:19:31.299Z,99720.86
2017-07-28T00:22:00.352Z,99731.50
2017-07-28T00:24:29.407Z,99736.38
2017-07-28T00:26:58.666Z,99739.50
2017-07-28T00:29:27.695Z,99752.22
2017-07-28T00:31:56.783Z,99748.53
2017-07-28T00:34:25.852Z,99749.28
2017-07-28T00:36:54.916Z,99747.31
2017-07-28T00:39:23.984Z,99743.59
2017-07-28T00:41:53.023Z,99733.61
2017-07-28T00:44:22.103Z,99743.58
2017-07-28T00:46:51.147Z,99741.02
2017-07-28T00:49:20.225Z,99745.55
2017-07-28T00:51:49.293Z,99749.28
2017-07-28T00:54:18.361Z,99746.12
2017-07-28T00:56:47.423Z,99742.36
2017-07-28T00:59:16.472Z,99749.02
2017-07-28T01:01:45.543Z,99738.41
2017-07-28T01:04:14.583Z,99732.87
2017-07-28T01:06:43.646Z,99729.53
2017-07-28T01:09:12.732Z,99732.67
2017-07-28T01:11:41.825Z,99740.72
2017-07-28T01:14:10.870Z,99742.48
2017-07-28T01:16:39.966Z,99741.30
2017-07-28T01:19:09.013Z,99737.58
2017-07-28T01:21:38.284Z,99737.58
2017-07-28T01:24:07.362Z,99733.01
2017-07-28T01:26:36.408Z,99743.56
2017-07-28T01:29:05.473Z,99746.45
2017-07-28T01:31:34.512Z,99752.45
2017-07-28T01:34:03.597Z,99755.39
2017-07-28T01:36:32.643Z,99763.18
2017-07-28T01:39:01.713Z,99760.38
2017-07-28T01:41:30.791Z,99764.03
2017-07-28T01:43:59.852Z,99759.69
2017-07-28T01:46:28.904Z,99761.41
2017-07-28T01:48:57.973Z,99761.38
2017-07-28T01:51:27.013Z,99760.73
2017-07-28T01:53:56.076Z,99756.95
2017-07-28T01:56:25.127Z,99770.84
2017-07-28T01:58:54.184Z,99768.28
2017-07-28T02:01:23.247Z,99761.36
2017-07-28T02:03:52.312Z,99765.30
2017-07-28T02:06:21.377Z,99772.33
2017-07-28T02:08:50.452Z,99773.11
2017-07-28T02:11:19.521Z,99779.11
2017-07-28T02:13:48.571Z,99782.82
2017-07-28T02:16:17.640Z,99792.53
2017-07-28T02:18:46.704Z,99790.17
2017-07-28T02:21:15.781Z,99796.95
2017-07-28T02:23:44.874Z,99795.09
2017-07-28T02:26:13.913Z,99802.28
2017-07-28T02:28:42.959Z,99803.44
2017-07-28T02:31:12.060Z,99805.77
2017-07-28T02:33:41.125Z,99803.77
2017-07-28T02:36:10.179Z,99806.95
2017-07-28T02:38:39.241Z,99813.20
2017-07-28T02:41:08.280Z,99809.80
2017-07-28T02:43:37.383Z,99816.83
2017-07-28T02:46:06.424Z,99816.53
2017-07-28T02:48:35.493Z,99818.09
2017-07-28T02:51:04.591Z,99825.73
2017-07-28T02:53:33.854Z,99832.77
2017-07-28T02:56:02.947Z,99830.12
2017-07-28T02:58:32.023Z,99822.67
2017-07-28T03:01:01.077Z,99824.86
2017-07-28T03:03:30.127Z,99830.30
2017-07-28T03:05:59.203Z,99837.47
2017-07-28T03:08:28.263Z,99832.95
2017-07-28T03:10:57.320Z,99830.97
2017-07-28T03:13:26.384Z,99829.19
2017-07-28T03:15:55.443Z,99829.81
2017-07-28T03:18:24.550Z,99828.42
2017-07-28T03:20:53.564Z,99826.47
2017-07-28T03:23:22.619Z,99825.89
2017-07-28T03:25:51.683Z,99830.95
2017-07-28T03:28:20.739Z,99833.25
2017-07-28T03:30:49.784Z,99839.11
2017-07-28T03:33:18.847Z,99838.50
2017-07-28T03:35:47.895Z,99840.43
2017-07-28T03:38:16.973Z,99846.05
2017-07-28T03:40:45.995Z,99843.89
2017-07-28T03:43:15.044Z,99857.14
2017-07-28T03:45:44.120Z,99854.36
2017-07-28T03:48:13.182Z,99859.79
2017-07-28T03:50:42.225Z,99861.53
2017-07-28T03:53:11.272Z,99864.80
2017-07-28T03:55:40.319Z,99853.32
2017-07-28T03:58:09.379Z,99866.97
2017-07-28T04:00:38.445Z,99869.60
2017-07-28T04:03:07.511Z,99870.16
2017-07-28T04:05:36.549Z,99883.64
2017-07-28T04:08:05.617Z,99883.40
2017-07-28T04:10:34.667Z,99889.13
2017-07-28T04:13:03.736Z,99875.87
2017-07-28T04:15:32.780Z,99881.58
2017-07-28T04:18:01.842Z,99871.09
2017-07-28T04:20:30.892Z,99869.50
2017-07-28T04:22:59.933Z,99860.62
2017-07-28T04:25:28.993Z,99868.25
2017-07-28T04:27:58.034Z,99868.88
2017-07-28T04:30:27.321Z,99868.38
2017-07-28T04:32:56.604Z,99872.12
2017-07-28T04:35:25.896Z,99874.64
2017-07-28T04:37:54.956Z,99871.95
2017-07-28T04:40:24.007Z,99875.30
2017-07-28T04:42:53.077Z,99876.95
2017-07-28T04:45:22.131Z,99879.30
2017-07-28T04:47:51.164Z,99876.19
2017-07-28T04:50:20.249Z,99888.02
2017-07-28T04:52:49.288Z,99886.11
2017-07-28T04:55:18.390Z,99884.44
2017-07-28T04:57:47.489Z,99886.88
2017-07-28T05:00:16.584Z,99888.14
2017-07-28T05:02:45.660Z,99887.56
2017-07-28T05:05:14.730Z,99886.98
2017-07-28T05:07:43.866Z,99892.48
2017-07-28T05:10:12.918Z,99891.99
2017-07-28T05:12:42.256Z,99896.73
2017-07-28T05:15:11.391Z,99887.23
2017-07-28T05:17:40.427Z,99887.04
2017-07-28T05:20:09.520Z,99896.83
2017-07-28T05:22:38.588Z,99898.38
2017-07-28T05:25:07.656Z,99897.89
2017-07-28T05:27:36.715Z,99901.03
2017-07-28T05:30:05.811Z,99904.30
2017-07-28T05:32:34.856Z,99906.80
2017-07-28T05:35:03.898Z,99899.62
2017-07-28T05:37:32.959Z,99910.73
2017-07-28T05:40:02.017Z,99911.50
2017-07-28T05:42:31.074Z,99906.78
2017-07-28T05:45:00.136Z,99910.57
2017-07-28T05:47:29.226Z,99917.45
2017-07-28T05:49:58.253Z,99913.47
2017-07-28T05:52:27.292Z,99922.54
2017-07-28T05:54:56.347Z,99927.98
2017-07-28T05:57:25.415Z,99924.12
2017-07-28T05:59:54.470Z,99923.77
2017-07-28T06:02:23.528Z,99926.61
2017-07-28T06:04:52.589Z,99926.80
2017-07-28T06:07:21.847Z,99933.75
2017-07-28T06:09:50.905Z,99938.47
2017-07-28T06:12:19.985Z,99937.39
2017-07-28T06:14:49.067Z,99936.20
2017-07-28T06:17:18.114Z,99940.02
2017-07-28T06:19:47.162Z,99948.53
2017-07-28T06:22:16.227Z,99945.03
2017-07-28T06:24:45.287Z,99948.19
2017-07-28T06:27:14.421Z,99950.23
2017-07-28T06:29:43.726Z,99943.75
2017-07-28T06:32:12.777Z,99941.13
2017-07-28T06:34:41.865Z,99939.22
2017-07-28T06:37:10.913Z,99945.92
2017-07-28T06:39:39.953Z,99945.18
2017-07-28T06:42:09.196Z,99945.98
2017-07-28T06:44:38.236Z,99945.03
2017-07-28T06:47:07.273Z,99956.84
2017-07-28T06:49:36.352Z,99954.69
2017-07-28T06:52:05.412Z,99964.14
2017-07-28T06:54:34.471Z,99971.28
2017-07-28T06:57:03.564Z,99969.98
2017-07-28T06:59:32.619Z,99973.25
2017-07-28T07:02:01.694Z,99980.59
2017-07-28T07:04:30.733Z,99974.10
2017-07-28T07:06:59.806Z,99987.00
2017-07-28T07:09:28.859Z,99991.88
2017-07-28T07:11:57.907Z,99981.30
2017-07-28T07:14:26.980Z,99983.86
2017-07-28T07:16:56.027Z,99992.89
2017-07-28T07:19:25.079Z,99999.82
2017-07-28T07:21:54.123Z,100011.62
2017-07-28T07:24:23.416Z,100015.84
2017-07-28T07:26:52.495Z,100026.09
2017-07-28T07:29:21.554Z,100023.63
2017-07-28T07:31:50.620Z,100022.28
2017-07-28T07:34:19.710Z,100020.97
2017-07-28T07:36:48.771Z,100012.02
2017-07-28T07:39:17.856Z,100005.20
2017-07-28T07:41:46.924Z,100006.34
2017-07-28T07:44:16.006Z,100001.19
2017-07-28T07:46:45.054Z,100004.51
2017-07-28T07:49:14.131Z,99998.97
2017-07-28T07:51:43.195Z,100003.02
2017-07-28T07:54:12.264Z,100006.86
2017-07-28T07:56:41.349Z,100003.22
2017-07-28T07:59:10.388Z,100016.24
2017-07-28T08:01:39.433Z,100019.40
2017-07-28T08:04:08.507Z,100025.93
2017-07-28T08:06:37.582Z,100021.20
2017-07-28T08:09:06.655Z,100023.73
2017-07-28T08:11:35.717Z,100027.86
2017-07-28T08:14:04.788Z,100023.57
2017-07-28T08:16:33.875Z,100022.24
2017-07-28T08:19:02.916Z,100033.17
2017-07-28T08:21:31.988Z,100026.48
2017-07-28T08:24:01.063Z,100029.04
2017-07-28T08:26:30.128Z,100036.16
2017-07-28T08:28:59.193Z,100036.39
2017-07-28T08:31:28.236Z,100028.56
2017-07-28T08:33:57.311Z,100033.68
2017-07-28T08:36:26.361Z,100017.95
2017-07-28T08:38:55.447Z,100023.50
2017-07-28T08:41:24.513Z,100017.20
2017-07-28T08:43:53.567Z,100018.38
2017-07-28T08:46:22.627Z,100014.08
2017-07-28T08:48:51.668Z,100020.57
2017-07-28T08:51:20.711Z,100031.02
2017-07-28T08:53:49.858Z,100028.28
2017-07-28T08:56:18.875Z,100032.47
2017-07-28T08:58:47.948Z,100033.47
2017-07-28T09:01:17.246Z,100020.13
2017-07-28T09:03:46.284Z,100019.55
2017-07-28T09:06:15.358Z,100023.91
2017-07-28T09:08:44.424Z,100024.70
2017-07-28T09:11:13.631Z,100028.47
2017-07-28T09:13:42.714Z,100032.00
2017-07-28T09:16:11.777Z,100029.84
2017-07-28T09:18:40.825Z,100035.14
2017-07-28T09:21:09.947Z,100036.50
2017-07-28T09:23:39.001Z,100027.97
2017-07-28T09:26:08.115Z,100026.20
2017-07-28T09:28:37.194Z,100024.40
2017-07-28T09:31:06.271Z,100026.98
2017-07-28T09:33:35.312Z,100022.50
2017-07-28T09:36:04.379Z,100024.52
2017-07-28T09:38:33.472Z,100027.68
2017-07-28T09:41:02.510Z,100025.12
2017-07-28T09:43:31.559Z,100021.95
2017-07-28T09:46:00.628Z,100019.38
2017-07-28T09:48:29.675Z,100013.69
2017-07-28T09:50:58.738Z,100011.90
2017-07-28T09:53:27.778Z,100020.16
2017-07-28T09:55:56.841Z,100038.88
2017-07-28T09:58:25.876Z,100046.77
2017-07-28T10:00:54.952Z,100047.75
2017-07-28T10:03:24.027Z,100040.89
2017-07-28T10:05:53.305Z,100032.80
2017-07-28T10:08:22.368Z,100043.84
2017-07-28T10:10:51.422Z,100047.99
2017-07-28T10:13:20.492Z,100043.45
2017-07-28T10:15:49.542Z,100042.68
2017-07-28T10:18:18.631Z,100034.98
2017-07-28T10:20:47.663Z,100035.70
2017-07-28T10:23:16.783Z,100049.31
2017-07-28T10:25:45.831Z,100048.90
2017-07-28T10:28:14.909Z,100054.45
2017-07-28T10:30:43.993Z,100054.70
2017-07-28T10:33:13.092Z,100058.42
2017-07-28T10:35:42.133Z,100055.03
2017-07-28T10:38:11.192Z,100040.17
2017-07-28T10:40:40.255Z,100048.83
2017-07-28T10:43:09.329Z,100053.95
2017-07-28T10:45:38.376Z,100061.86
2017-07-28T10:48:07.447Z,100059.31
2017-07-28T10:50:36.515Z,100063.48
2017-07-28T10:53:05.548Z,100065.47
2017-07-28T10:55:34.627Z,100061.11
2017-07-28T10:58:03.732Z,100055.55
2017-07-28T11:00:32.760Z,100054.10
2017-07-28T11:03:01.817Z,100058.35
2017-07-28T11:05:30.880Z,100069.31
2017-07-28T11:07:59.932Z,100062.30
2017-07-28T11:10:28.983Z,100057.69
2017-07-28T11:12:58.041Z,100068.88
2017-07-28T11:15:27.108Z,100070.34
2017-07-28T11:17:56.936Z,100072.33
2017-07-28T11:20:26.006Z,100060.34
2017-07-28T11:22:55.040Z,100062.27
2017-07-28T11:25:24.100Z,100055.55
2017-07-28T11:27:53.163Z,100060.02
2017-07-28T11:30:22.234Z,100062.86
2017-07-28T11:32:51.266Z,100069.48
2017-07-28T11:35:20.528Z,100078.43
2017-07-28T11:37:49.600Z,100074.70
2017-07-28T11:40:18.692Z,100076.70
2017-07-28T11:42:47.756Z,100062.70
2017-07-28T11:45:16.792Z,100068.06
2017-07-28T11:47:46.181Z,100072.59
2017-07-28T11:50:15.261Z,100075.00
2017-07-28T11:52:44.325Z,100074.83
2017-07-28T11:55:13.414Z,100078.97
2017-07-28T11:57:42.458Z,100081.52
2017-07-28T12:00:11.584Z,100083.48
2017-07-28T12:02:40.674Z,100086.45
2017-07-28T12:05:09.731Z,100095.34
2017-07-28T12:07:38.848Z,100095.93
2017-07-28T12:10:08.722Z,100102.88
2017-07-28T12:12:37.812Z,100098.14
2017-07-28T12:15:06.897Z,100108.99
2017-07-28T12:17:35.932Z,100104.86
2017-07-28T12:20:05.776Z,100107.42
2017-07-28T12:22:34.826Z,100115.09
2017-07-28T12:25:03.975Z,100117.06
2017-07-28T12:27:33.023Z,100103.28
2017-07-28T12:30:03.049Z,100097.13
2017-07-28T12:32:32.111Z,100090.39
2017-07-28T12:35:01.194Z,100097.66
2017-07-28T12:37:30.244Z,100103.17
2017-07-28T12:40:00.099Z,100102.38
2017-07-28T12:42:29.172Z,100107.44
2017-07-28T12:44:58.243Z,100109.55
2017-07-28T12:47:28.104Z,100110.69
2017-07-28T12:49:57.164Z,100107.27
2017-07-28T12:52:26.969Z,100110.98
2017-07-28T12:54:56.791Z,100116.93
2017-07-28T12:57:25.875Z,100109.97
2017-07-28T12:59:55.705Z,100109.55
2017-07-28T13:02:24.761Z,100103.59
2017-07-28T13:04:53.829Z,100104.15
2017-07-28T13:07:22.900Z,100112.52
2017-07-28T13:09:52.825Z,100098.77
2017-07-28T13:12:21.879Z,100108.02
2017-07-28T13:14:51.697Z,100105.88
2017-07-28T13:17:21.558Z,100107.38
2017-07-28T13:19:50.590Z,100112.44
2017-07-28T13:22:19.676Z,100112.72
2017-07-28T13:24:48.764Z,100112.20
2017-07-28T13:27:17.805Z,100123.13
2017-07-28T13:29:46.877Z,100122.45
2017-07-28T13:32:16.713Z,100123.29
2017-07-28T13:34:45.799Z,100125.30
2017-07-28T13:37:15.645Z,100133.00
2017-07-28T13:39:44.707Z,100129.06
2017-07-28T13:42:14.656Z,100128.27
2017-07-28T13:44:43.753Z,100133.80
2017-07-28T13:47:12.783Z,100128.26
2017-07-28T13:49:43.074Z,100129.43
2017-07-28T13:52:12.125Z,100130.44
2017-07-28T13:54:41.953Z,100133.81
2017-07-28T13:57:11.025Z,100139.92
2017-07-28T13:59:40.085Z,100145.69
2017-07-28T14:02:09.178Z,100152.80
2017-07-28T14:04:38.239Z,100155.19
2017-07-28T14:07:07.583Z,100156.58
2017-07-28T14:09:36.652Z,100155.37
2017-07-28T14:12:05.740Z,100153.63
2017-07-28T14:14:34.802Z,100160.90
2017-07-28T14:17:03.880Z,100160.52
2017-07-28T14:19:32.952Z,100154.98
2017-07-28T14:22:02.008Z,100159.31
2017-07-28T14:24:31.067Z,100151.59
2017-07-28T14:27:00.220Z,100149.61
2017-07-28T14:29:29.283Z,100149.99
2017-07-28T14:31:59.126Z,100158.87
2017-07-28T14:34:28.179Z,100158.48
2017-07-28T14:36:57.983Z,100163.45
2017-07-28T14:39:27.060Z,100169.20
2017-07-28T14:41:56.140Z,100167.38
2017-07-28T14:44:25.184Z,100168.17
2017-07-28T14:46:55.056Z,100169.37
2017-07-28T14:49:24.092Z,100166.00
2017-07-28T14:51:53.927Z,100164.42
2017-07-28T14:54:22.984Z,100163.05
2017-07-28T14:56:52.052Z,100167.22
2017-07-28T14:59:21.113Z,100167.19
2017-07-28T15:01:50.191Z,100172.34
2017-07-28T15:04:19.999Z,100162.05
2017-07-28T15:06:49.948Z,100167.20
2017-07-28T15:09:19.023Z,100165.42
2017-07-28T15:11:48.930Z,100158.27
2017-07-28T15:14:18.757Z,100164.56
2017-07-28T15:16:47.815Z,100158.82
2017-07-28T15:19:16.876Z,100157.42
2017-07-28T15:21:45.939Z,100152.08
2017-07-28T15:24:15.070Z,100155.05
2017-07-28T15:26:44.560Z,100154.25
2017-07-28T15:29:13.625Z,100159.39
2017-07-28T15:31:44.028Z,100157.00
2017-07-28T15:34:13.892Z,100156.41
2017-07-28T15:36:43.044Z,100158.58
2017-07-28T15:39:12.918Z,100151.47
2017-07-28T15:41:41.991Z,100156.98
2017-07-28T15:44:11.068Z,100163.47
2017-07-28T15:46:40.911Z,100163.47
2017-07-28T15:49:09.968Z,100156.56
2017-07-28T15:51:39.779Z,100153.66
2017-07-28T15:54:09.856Z,100155.02
2017-07-28T15:56:38.894Z,100164.09
2017-07-28T15:59:08.752Z,100159.20
2017-07-28T16:01:37.823Z,100161.34
2017-07-28T16:04:06.882Z,100155.20
2017-07-28T16:06:36.706Z,100159.36
2017-07-28T16:09:06.175Z,100160.56
2017-07-28T16:11:35.231Z,100156.42
2017-07-28T16:14:04.273Z,100164.31
2017-07-28T16:16:33.322Z,100165.89
2017-07-28T16:19:02.394Z,100158.36
2017-07-28T16:21:32.223Z,100163.70
2017-07-28T16:24:01.296Z,100164.71
2017-07-28T16:26:31.116Z,100165.87
2017-07-28T16:29:00.955Z,100168.47
2017-07-28T16:31:30.006Z,100171.43
2017-07-28T16:33:59.833Z,100166.08
2017-07-28T16:36:29.670Z,100174.20
2017-07-28T16:38:58.742Z,100180.11
2017-07-28T16:41:27.854Z,100177.92
2017-07-28T16:43:56.925Z,100178.54
2017-07-28T16:46:25.954Z,100181.70
2017-07-28T16:48:55.021Z,100180.93
2017-07-28T16:51:24.832Z,100180.93
2017-07-28T16:53:54.685Z,100183.30
2017-07-28T16:56:23.758Z,100178.75
2017-07-28T16:58:53.594Z,100177.78
2017-07-28T17:01:22.649Z,100181.95
2017-07-28T17:03:52.469Z,100175.83
2017-07-28T17:06:21.533Z,100175.41
2017-07-28T17:08:50.586Z,100173.05
2017-07-28T17:11:19.640Z,100179.95
2017-07-28T17:13:49.496Z,100187.67
2017-07-28T17:16:18.551Z,100189.87
2017-07-28T17:18:48.371Z,100187.88
2017-07-28T17:21:17.463Z,100187.08
2017-07-28T17:23:47.297Z,100191.05
2017-07-28T17:26:16.343Z,100188.10
2017-07-28T17:28:45.396Z,100195.80
2017-07-28T17:31:14.505Z,100203.55
2017-07-28T17:33:43.528Z,100205.93
2017-07-28T17:36:12.644Z,100198.23
2017-07-28T17:38:41.673Z,100213.66
2017-07-28T17:41:10.727Z,100210.67
2017-07-28T17:43:40.555Z,100206.55
2017-07-28T17:46:10.139Z,100204.16
2017-07-28T17:48:39.209Z,100198.23
2017-07-28T17:51:08.295Z,100196.08
2017-07-28T17:53:37.347Z,100187.76
2017-07-28T17:56:07.174Z,100188.17
2017-07-28T17:58:36.523Z,100189.73
2017-07-28T18:01:05.619Z,100180.66
2017-07-28T18:03:34.695Z,100183.81
2017-07-28T18:06:03.755Z,100182.44
2017-07-28T18:08:32.826Z,100190.92
2017-07-28T18:11:01.901Z,100199.83
2017-07-28T18:13:31.995Z,100199.22
2017-07-28T18:16:01.044Z,100197.83
2017-07-28T18:18:30.869Z,100189.75
2017-07-28T18:20:59.942Z,100195.27
2017-07-28T18:23:29.013Z,100190.13
2017-07-28T18:25:58.071Z,100187.97
2017-07-28T18:28:27.143Z,100185.78
2017-07-28T18:30:56.196Z,100199.80
2017-07-28T18:33:25.239Z,100208.50
2017-07-28T18:35:54.327Z,100204.36
2017-07-28T18:38:24.155Z,100208.89
2017-07-28T18:40:53.202Z,100214.66
2017-07-28T18:43:22.285Z,100201.99
2017-07-28T18:45:51.360Z,100207.93
2017-07-28T18:48:20.425Z,100211.86
2017-07-28T18:50:49.489Z,100202.98
2017-07-28T18:53:18.547Z,100201.39
2017-07-28T18:55:47.628Z,100212.66
2017-07-28T18:58:16.709Z,100214.81
2017-07-28T19:00:45.779Z,100209.87
2017-07-28T19:03:15.612Z,100209.69
2017-07-28T19:05:44.703Z,100209.67
2017-07-28T19:08:14.626Z,100209.87
2017-07-28T19:10:43.715Z,100215.02
2017-07-28T19:13:12.773Z,100214.59
2017-07-28T19:15:41.863Z,100214.39
2017-07-28T19:18:10.943Z,100216.18
2017-07-28T19:20:40.004Z,100213.81
2017-07-28T19:23:09.114Z,100226.59
2017-07-28T19:25:38.149Z,100227.38
2017-07-28T19:28:07.277Z,100229.16
2017-07-28T19:30:36.352Z,100233.69
2017-07-28T19:33:05.401Z,100233.88
2017-07-28T19:35:34.471Z,100239.02
2017-07-28T19:38:03.526Z,100240.17
2017-07-28T19:40:32.571Z,100246.49
2017-07-28T19:43:01.630Z,100242.12
2017-07-28T19:45:30.696Z,100247.23
2017-07-28T19:48:00.530Z,100246.02
2017-07-28T19:50:29.592Z,100248.19
2017-07-28T19:52:58.674Z,100254.47
2017-07-28T19:55:27.718Z,100251.52
2017-07-28T19:57:56.789Z,100253.09
2017-07-28T20:00:25.844Z,100253.31
2017-07-28T20:02:54.915Z,100248.39
2017-07-28T20:05:23.980Z,100247.17
2017-07-28T20:07:53.036Z,100254.08
2017-07-28T20:10:22.084Z,100254.30
2017-07-28T20:12:51.139Z,100251.91
2017-07-28T20:15:20.207Z,100257.43
2017-07-28T20:17:49.284Z,100254.47
2017-07-28T20:20:18.379Z,100260.98
2017-07-28T20:22:47.432Z,100257.43
2017-07-28T20:25:16.556Z,100260.98
2017-07-28T20:27:45.615Z,100259.80
2017-07-28T20:30:14.684Z,100261.94
2017-07-28T20:32:43.720Z,100258.02
2017-07-28T20:35:12.779Z,100265.48
2017-07-28T20:37:41.857Z,100259.17
2017-07-28T20:40:10.923Z,100264.83
2017-07-28T20:42:39.986Z,100262.61
2017-07-28T20:45:09.166Z,100256.86
2017-07-28T20:47:38.243Z,100256.06
2017-07-28T20:50:07.324Z,100252.25
2017-07-28T20:52:36.394Z,100262.45
2017-07-28T20:55:05.481Z,100265.17
2017-07-28T20:57:34.544Z,100269.27
2017-07-28T21:00:03.604Z,100277.33
2017-07-28T21:02:32.645Z,100278.66
2017-07-28T21:05:01.716Z,100275.27
2017-07-28T21:07:30.760Z,100281.13
2017-07-28T21:09:59.853Z,100281.00
2017-07-28T21:12:28.929Z,100284.53
2017-07-28T21:14:59.816Z,100277.33
2017-07-28T21:17:28.892Z,100280.69
2017-07-28T21:19:57.932Z,100279.07
2017-07-28T21:22:26.988Z,100280.30
2017-07-28T21:24:56.058Z,100281.27
2017-07-28T21:27:25.138Z,100286.77
2017-07-28T21:29:54.189Z,100287.69
2017-07-28T21:32:23.241Z,100284.73
2017-07-28T21:34:52.300Z,100285.84
2017-07-28T21:37:21.381Z,100278.69
2017-07-28T21:39:50.435Z,100278.47
2017-07-28T21:42:19.464Z,100283.53
2017-07-28T21:44:48.536Z,100280.79
2017-07-28T21:47:17.605Z,100284.13
2017-07-28T21:49:46.663Z,100283.70
2017-07-28T21:52:15.917Z,100290.33
2017-07-28T21:54:44.973Z,100291.69
2017-07-28T21:57:14.097Z,100286.78
2017-07-28T21:59:43.162Z,100273.97
2017-07-28T22:02:12.246Z,100281.45
2017-07-28T22:04:41.324Z,100281.27
2017-07-28T22:07:10.430Z,100282.26
2017-07-28T22:09:39.484Z,100276.75
2017-07-28T22:12:08.551Z,100278.13
2017-07-28T22:14:37.624Z,100271.56
2017-07-28T22:17:06.688Z,100278.34
2017-07-28T22:19:35.781Z,100270.22
2017-07-28T22:22:04.894Z,100259.12
2017-07-28T22:24:33.969Z,100257.05
2017-07-28T22:27:03.036Z,100254.57
2017-07-28T22:29:32.112Z,100257.69
2017-07-28T22:32:01.184Z,100256.91
2017-07-28T22:34:30.464Z,100255.70
2017-07-28T22:36:59.534Z,100256.61
2017-07-28T22:39:28.595Z,100254.77
2017-07-28T22:41:57.669Z,100260.05
2017-07-28T22:44:26.720Z,100256.72
2017-07-28T22:46:55.798Z,100245.51
2017-07-28T22:49:25.097Z,100247.02
2017-07-28T22:51:54.140Z,100247.41
2017-07-28T22:54:23.244Z,100239.36
2017-07-28T22:56:52.284Z,100230.09
2017-07-28T22:59:21.331Z,100224.97
2017-07-28T23:01:50.617Z,100222.82
2017-07-28T23:04:19.673Z,100223.80
2017-07-28T23:06:48.745Z,100230.20
2017-07-28T23:09:17.813Z,100232.55
2017-07-28T23:11:46.902Z,100227.03
2017-07-28T23:14:15.920Z,100219.38
2017-07-28T23:16:44.991Z,100212.92
2017-07-28T23:19:14.068Z,100212.92
2017-07-28T23:21:43.122Z,100207.89
2017-07-28T23:24:12.183Z,100200.05
2017-07-28T23:26:41.269Z,100203.77
2017-07-28T23:29:10.307Z,100187.45
2017-07-28T23:31:39.371Z,100188.42
2017-07-28T23:34:08.456Z,100192.48
2017-07-28T23:36:37.532Z,100192.68
2017-07-28T23:39:06.602Z,100188.08
2017-07-28T23:41:35.703Z,100185.11
2017-07-28T23:44:04.768Z,100181.56
2017-07-28T23:46:33.971Z,100186.02
2017-07-28T23:49:03.045Z,100184.81
2017-07-28T23:51:32.105Z,100177.95
2017-07-28T23:54:01.174Z,100168.07
2017-07-28T23:56:30.227Z,100166.27
2017-07-28T23:58:59.268Z,100172.57
